Wetterdaten: Woche 13.06.16 - 19.06.16 (KW24)
Datum Zeit Temperatur Luftfeuchte Luftdruck Niederschlag Windrichtung Sonnenschein Solar Wind
13.06.2016 00:00 13,5 C 91 % 1007,4 hPa 0,0 l/m W-SW 0,00 h 0 W/m 8,3 km/h (2 Bft)
13.06.2016 01:00 13,3 C 92 % 1006,8 hPa 0,0 l/m W-SW 0,00 h 0 W/m 11,8 km/h (2 Bft)
13.06.2016 02:00 13,3 C 91 % 1006,5 hPa 0,0 l/m W-SW 0,00 h 0 W/m 14,2 km/h (3 Bft)
13.06.2016 03:00 13,0 C 94 % 1006,1 hPa 0,0 l/m W-SW 0,00 h 0 W/m 7,8 km/h (2 Bft)
13.06.2016 04:00 12,8 C 96 % 1005,5 hPa 0,0 l/m W-SW 0,00 h 0 W/m 9,1 km/h (2 Bft)
13.06.2016 05:00 12,5 C 96 % 1005,0 hPa 0,0 l/m SW 0,00 h 13 W/m 9,3 km/h (2 Bft)
13.06.2016 06:00 12,9 C 96 % 1004,7 hPa 0,0 l/m SW 0,00 h 42 W/m 12,6 km/h (3 Bft)
13.06.2016 07:00 13,0 C 96 % 1004,6 hPa 1,2 l/m W-SW 0,00 h 36 W/m 14,2 km/h (3 Bft)
13.06.2016 08:00 12,9 C 98 % 1004,4 hPa 1,2 l/m SW 0,00 h 52 W/m 10,6 km/h (2 Bft)
13.06.2016 09:00 13,3 C 98 % 1004,3 hPa 0,0 l/m SW 0,00 h 112 W/m 12,8 km/h (3 Bft)
13.06.2016 10:00 13,7 C 96 % 1003,8 hPa 0,2 l/m SW 0,00 h 110 W/m 19,4 km/h (3 Bft)
13.06.2016 11:00 13,7 C 97 % 1003,5 hPa 0,0 l/m W-SW 0,00 h 119 W/m 15,7 km/h (3 Bft)
13.06.2016 12:00 14,9 C 95 % 1002,9 hPa 0,0 l/m W-SW 0,00 h 274 W/m 19,6 km/h (3 Bft)
13.06.2016 13:00 15,6 C 92 % 1002,6 hPa 0,0 l/m W-SW 0,17 h 334 W/m 26,9 km/h (4 Bft)
13.06.2016 14:00 16,1 C 89 % 1002,0 hPa 1,0 l/m W-SW 0,08 h 253 W/m 21,8 km/h (4 Bft)
13.06.2016 15:00 14,5 C 95 % 1002,1 hPa 2,8 l/m W-SW 0,00 h 51 W/m 15,8 km/h (3 Bft)
13.06.2016 16:00 14,1 C 97 % 1002,0 hPa 3,6 l/m W-SW 0,00 h 30 W/m 16,1 km/h (3 Bft)
13.06.2016 17:00 13,8 C 98 % 1001,7 hPa 4,4 l/m W-SW 0,00 h 22 W/m 12,4 km/h (3 Bft)
13.06.2016 18:00 13,2 C 98 % 1001,7 hPa 4,4 l/m W-SW 0,00 h 38 W/m 7,1 km/h (2 Bft)
13.06.2016 19:00 13,7 C 98 % 1001,7 hPa 0,0 l/m N 0,00 h 75 W/m 0,0 km/h (0 Bft)
13.06.2016 20:00 13,1 C 97 % 1001,9 hPa 0,2 l/m N-NW 0,00 h 13 W/m 2,8 km/h (1 Bft)
13.06.2016 21:00 12,5 C 96 % 1002,1 hPa 0,6 l/m N-NW 0,00 h 0 W/m 6,0 km/h (2 Bft)
13.06.2016 22:00 11,8 C 97 % 1002,3 hPa 0,4 l/m N 0,00 h 0 W/m 0,7 km/h (0 Bft)
13.06.2016 23:00 11,8 C 98 % 1002,2 hPa 0,0 l/m S-SW 0,00 h 0 W/m 1,9 km/h (1 Bft)
14.06.2016 00:00 11,6 C 98 % 1002,7 hPa 0,4 l/m N-NW 0,00 h 0 W/m 8,1 km/h (2 Bft)
14.06.2016 01:00 11,7 C 98 % 1002,7 hPa 0,8 l/m SW 0,00 h 0 W/m 6,6 km/h (2 Bft)
14.06.2016 02:00 11,7 C 99 % 1002,4 hPa 0,4 l/m S-SW 0,00 h 0 W/m 6,0 km/h (2 Bft)
14.06.2016 03:00 11,5 C 99 % 1002,1 hPa 2,2 l/m N 0,00 h 0 W/m 0,0 km/h (0 Bft)
14.06.2016 04:00 11,2 C 99 % 1002,0 hPa 0,2 l/m SW 0,00 h 0 W/m 1,5 km/h (1 Bft)
14.06.2016 05:00 11,2 C 99 % 1002,0 hPa 0,8 l/m N 0,00 h 11 W/m 0,0 km/h (0 Bft)
14.06.2016 06:00 11,4 C 100 % 1002,0 hPa 0,4 l/m SW 0,00 h 29 W/m 2,0 km/h (1 Bft)
14.06.2016 07:00 11,9 C 100 % 1002,0 hPa 0,0 l/m S-SW 0,00 h 91 W/m 8,2 km/h (2 Bft)
14.06.2016 08:00 12,8 C 99 % 1001,7 hPa 0,0 l/m S-SW 0,08 h 122 W/m 10,3 km/h (2 Bft)
14.06.2016 09:00 13,8 C 96 % 1001,5 hPa 0,0 l/m SW 0,08 h 231 W/m 13,6 km/h (3 Bft)
14.06.2016 10:00 15,0 C 92 % 1001,3 hPa 0,0 l/m SW 0,17 h 306 W/m 14,2 km/h (3 Bft)
14.06.2016 11:00 15,9 C 89 % 1000,7 hPa 0,0 l/m SW 0,25 h 384 W/m 14,2 km/h (3 Bft)
14.06.2016 12:00 16,2 C 87 % 1000,1 hPa 0,0 l/m SW 0,08 h 349 W/m 18,8 km/h (3 Bft)
14.06.2016 13:00 16,0 C 86 % 1000,1 hPa 0,2 l/m W-SW 0,08 h 219 W/m 22,6 km/h (4 Bft)
14.06.2016 14:00 14,7 C 94 % 1000,1 hPa 0,6 l/m W-SW 0,00 h 153 W/m 13,7 km/h (3 Bft)
14.06.2016 15:00 15,5 C 92 % 999,9 hPa 0,0 l/m W-SW 0,00 h 257 W/m 16,1 km/h (3 Bft)
14.06.2016 16:00 16,3 C 84 % 999,8 hPa 0,0 l/m SW 0,25 h 281 W/m 21,3 km/h (4 Bft)
14.06.2016 17:00 16,0 C 84 % 999,6 hPa 0,0 l/m W-SW 0,17 h 252 W/m 20,9 km/h (4 Bft)
14.06.2016 18:00 15,7 C 83 % 999,6 hPa 0,0 l/m W 0,00 h 122 W/m 15,7 km/h (3 Bft)
14.06.2016 19:00 14,7 C 87 % 999,9 hPa 0,4 l/m W 0,00 h 68 W/m 17,9 km/h (3 Bft)
14.06.2016 20:00 13,6 C 90 % 1000,3 hPa 0,0 l/m W 0,00 h 26 W/m 12,6 km/h (3 Bft)
14.06.2016 21:00 13,0 C 89 % 1000,5 hPa 0,0 l/m W 0,00 h 8 W/m 5,6 km/h (1 Bft)
14.06.2016 22:00 12,6 C 89 % 1001,2 hPa 0,0 l/m W-SW 0,00 h 0 W/m 5,6 km/h (1 Bft)
14.06.2016 23:00 12,0 C 92 % 1001,4 hPa 0,0 l/m W-SW 0,00 h 0 W/m 3,1 km/h (1 Bft)
15.06.2016 00:00 11,2 C 93 % 1001,4 hPa 0,0 l/m W-SW 0,00 h 0 W/m 4,0 km/h (1 Bft)
15.06.2016 01:00 11,2 C 95 % 1001,3 hPa 0,0 l/m SW 0,00 h 0 W/m 13,7 km/h (3 Bft)
15.06.2016 02:00 11,2 C 95 % 1000,9 hPa 0,0 l/m W-SW 0,00 h 0 W/m 9,8 km/h (2 Bft)
15.06.2016 03:00 11,4 C 97 % 1000,8 hPa 0,6 l/m W-SW 0,00 h 0 W/m 3,6 km/h (1 Bft)
15.06.2016 04:00 11,1 C 97 % 1000,5 hPa 0,0 l/m N 0,00 h 0 W/m 0,3 km/h (0 Bft)
15.06.2016 05:00 10,5 C 99 % 1000,0 hPa 0,0 l/m N 0,00 h 12 W/m 0,1 km/h (0 Bft)
15.06.2016 06:00 10,7 C 99 % 1000,1 hPa 0,0 l/m W-SW 0,08 h 63 W/m 2,0 km/h (1 Bft)
15.06.2016 07:00 11,4 C 99 % 1000,3 hPa 0,0 l/m N 0,00 h 57 W/m 1,6 km/h (1 Bft)
15.06.2016 08:00 12,3 C 97 % 1000,2 hPa 0,0 l/m S-SW 0,00 h 149 W/m 9,4 km/h (2 Bft)
15.06.2016 09:00 13,3 C 92 % 1000,4 hPa 0,0 l/m SW 0,00 h 158 W/m 11,0 km/h (2 Bft)
15.06.2016 10:00 14,1 C 88 % 1000,6 hPa 0,0 l/m W-SW 0,00 h 163 W/m 18,5 km/h (3 Bft)
15.06.2016 11:00 13,4 C 88 % 1001,3 hPa 0,4 l/m SW 0,17 h 248 W/m 22,1 km/h (4 Bft)
15.06.2016 12:00 14,6 C 85 % 1001,5 hPa 0,0 l/m W-SW 0,25 h 310 W/m 17,3 km/h (3 Bft)
15.06.2016 13:00 16,3 C 76 % 1001,2 hPa 0,0 l/m W 0,83 h 923 W/m 16,1 km/h (3 Bft)
15.06.2016 14:00 17,9 C 68 % 1001,2 hPa 0,0 l/m W-SW 0,92 h 769 W/m 22,6 km/h (4 Bft)
15.06.2016 15:00 16,9 C 72 % 1001,2 hPa 0,0 l/m W 0,33 h 435 W/m 20,9 km/h (4 Bft)
15.06.2016 16:00 18,2 C 63 % 1000,7 hPa 0,0 l/m W-SW 0,67 h 601 W/m 20,1 km/h (4 Bft)
15.06.2016 17:00 18,1 C 60 % 1001,0 hPa 0,0 l/m W-SW 0,42 h 368 W/m 21,1 km/h (4 Bft)
15.06.2016 18:00 17,6 C 66 % 1001,1 hPa 0,0 l/m SW 0,42 h 251 W/m 15,0 km/h (3 Bft)
15.06.2016 19:00 17,1 C 69 % 1001,3 hPa 0,0 l/m SW 0,67 h 193 W/m 16,4 km/h (3 Bft)
15.06.2016 20:00 15,3 C 78 % 1001,6 hPa 0,0 l/m SW 0,00 h 29 W/m 12,5 km/h (3 Bft)
15.06.2016 21:00 14,2 C 84 % 1001,9 hPa 0,0 l/m W-SW 0,08 h 9 W/m 2,8 km/h (1 Bft)
15.06.2016 22:00 13,4 C 90 % 1002,2 hPa 0,0 l/m N 0,00 h 0 W/m 0,8 km/h (0 Bft)
15.06.2016 23:00 13,1 C 92 % 1002,1 hPa 0,0 l/m N 0,00 h 0 W/m 0,0 km/h (0 Bft)
16.06.2016 00:00 12,3 C 94 % 1001,9 hPa 0,0 l/m N 0,00 h 0 W/m 0,0 km/h (0 Bft)
16.06.2016 01:00 12,2 C 95 % 1001,6 hPa 0,0 l/m N 0,00 h 0 W/m 0,0 km/h (0 Bft)
16.06.2016 02:00 11,8 C 96 % 1000,7 hPa 0,0 l/m N 0,00 h 0 W/m 0,0 km/h (0 Bft)
16.06.2016 03:00 11,5 C 97 % 1000,3 hPa 0,0 l/m W-SW 0,00 h 0 W/m 3,6 km/h (1 Bft)
16.06.2016 04:00 11,8 C 96 % 1000,1 hPa 0,0 l/m N 0,00 h 0 W/m 0,7 km/h (0 Bft)
16.06.2016 05:00 11,7 C 97 % 999,9 hPa 0,4 l/m W-NW 0,00 h 6 W/m 3,6 km/h (1 Bft)
16.06.2016 06:00 11,8 C 97 % 999,4 hPa 0,2 l/m N 0,00 h 17 W/m 0,7 km/h (0 Bft)
16.06.2016 07:00 11,9 C 98 % 999,6 hPa 0,0 l/m N-NW 0,00 h 37 W/m 7,5 km/h (2 Bft)
16.06.2016 08:00 12,3 C 98 % 999,8 hPa 0,2 l/m N-NW 0,00 h 67 W/m 11,3 km/h (2 Bft)
16.06.2016 09:00 12,8 C 98 % 999,9 hPa 0,2 l/m N 0,00 h 136 W/m 9,9 km/h (2 Bft)
16.06.2016 10:00 13,4 C 95 % 1000,2 hPa 0,0 l/m N-NW 0,00 h 126 W/m 4,4 km/h (1 Bft)
16.06.2016 11:00 14,0 C 93 % 1000,8 hPa 0,0 l/m NW 0,00 h 159 W/m 3,5 km/h (1 Bft)
16.06.2016 12:00 14,4 C 90 % 1001,7 hPa 0,0 l/m NW 0,00 h 94 W/m 4,3 km/h (1 Bft)
16.06.2016 13:00 14,5 C 93 % 1002,3 hPa 0,0 l/m NW 0,00 h 126 W/m 2,5 km/h (1 Bft)
16.06.2016 14:00 14,6 C 93 % 1002,2 hPa 0,6 l/m NW 0,00 h 134 W/m 1,5 km/h (1 Bft)
16.06.2016 15:00 14,8 C 94 % 1002,0 hPa 0,2 l/m W 0,00 h 158 W/m 7,2 km/h (2 Bft)
16.06.2016 16:00 14,7 C 93 % 1001,4 hPa 0,0 l/m SW 0,00 h 105 W/m 6,7 km/h (2 Bft)
16.06.2016 17:00 14,2 C 95 % 1001,7 hPa 0,8 l/m SW 0,00 h 32 W/m 8,7 km/h (2 Bft)
16.06.2016 18:00 13,5 C 97 % 1001,9 hPa 1,8 l/m SW 0,00 h 21 W/m 8,0 km/h (2 Bft)
16.06.2016 19:00 12,9 C 98 % 1001,9 hPa 2,4 l/m S-SW 0,00 h 11 W/m 11,8 km/h (2 Bft)
16.06.2016 20:00 12,1 C 98 % 1002,3 hPa 2,2 l/m S-SW 0,00 h 7 W/m 12,2 km/h (2 Bft)
16.06.2016 21:00 11,7 C 98 % 1002,7 hPa 1,8 l/m S-SW 0,00 h 0 W/m 2,9 km/h (1 Bft)
16.06.2016 22:00 11,4 C 99 % 1002,0 hPa 0,8 l/m S-SW 0,00 h 0 W/m 16,1 km/h (3 Bft)
16.06.2016 23:00 11,1 C 99 % 1002,2 hPa 1,2 l/m SW 0,00 h 0 W/m 21,2 km/h (4 Bft)
17.06.2016 00:00 10,9 C 99 % 1002,3 hPa 1,2 l/m SW 0,00 h 0 W/m 19,2 km/h (3 Bft)
17.06.2016 01:00 10,9 C 99 % 1002,6 hPa 2,0 l/m SW 0,00 h 0 W/m 19,2 km/h (3 Bft)
17.06.2016 02:00 10,7 C 99 % 1003,2 hPa 2,4 l/m W-SW 0,00 h 0 W/m 18,1 km/h (3 Bft)
17.06.2016 03:00 10,3 C 99 % 1003,8 hPa 2,0 l/m SW 0,00 h 0 W/m 22,3 km/h (4 Bft)
17.06.2016 04:00 9,5 C 99 % 1004,4 hPa 2,8 l/m S-SW 0,00 h 0 W/m 25,2 km/h (4 Bft)
17.06.2016 05:00 9,3 C 99 % 1004,7 hPa 1,8 l/m SW 0,00 h 0 W/m 20,2 km/h (4 Bft)
17.06.2016 06:00 8,8 C 99 % 1005,3 hPa 0,6 l/m SW 0,00 h 10 W/m 17,3 km/h (3 Bft)
17.06.2016 07:00 8,6 C 99 % 1005,9 hPa 0,0 l/m SW 0,00 h 32 W/m 20,4 km/h (4 Bft)
17.06.2016 08:00 8,9 C 99 % 1006,7 hPa 0,0 l/m SW 0,00 h 76 W/m 20,2 km/h (4 Bft)
17.06.2016 09:00 9,8 C 99 % 1007,7 hPa 0,2 l/m SW 0,00 h 93 W/m 18,0 km/h (3 Bft)
17.06.2016 10:00 10,7 C 99 % 1008,4 hPa 0,0 l/m SW 0,00 h 184 W/m 17,0 km/h (3 Bft)
17.06.2016 11:00 13,3 C 92 % 1009,0 hPa 0,0 l/m W-SW 0,33 h 518 W/m 28,6 km/h (4 Bft)
17.06.2016 12:00 15,1 C 82 % 1009,5 hPa 0,0 l/m W-SW 0,42 h 550 W/m 29,9 km/h (5 Bft)
17.06.2016 13:00 15,9 C 77 % 1009,9 hPa 0,0 l/m W-SW 0,33 h 547 W/m 25,6 km/h (4 Bft)
17.06.2016 14:00 13,5 C 84 % 1010,7 hPa 1,0 l/m W 0,08 h 189 W/m 24,9 km/h (4 Bft)
17.06.2016 15:00 14,3 C 85 % 1011,0 hPa 0,0 l/m W 0,33 h 372 W/m 26,3 km/h (4 Bft)
17.06.2016 16:00 14,5 C 81 % 1011,2 hPa 0,0 l/m W 0,50 h 451 W/m 13,8 km/h (3 Bft)
17.06.2016 17:00 16,8 C 72 % 1011,4 hPa 0,0 l/m W-SW 1,00 h 618 W/m 19,4 km/h (3 Bft)
17.06.2016 18:00 17,3 C 72 % 1011,5 hPa 0,0 l/m W 1,00 h 434 W/m 13,3 km/h (3 Bft)
17.06.2016 19:00 17,1 C 72 % 1012,0 hPa 0,2 l/m W 1,00 h 253 W/m 7,7 km/h (2 Bft)
17.06.2016 20:00 15,3 C 78 % 1012,3 hPa 0,0 l/m W-SW 0,08 h 27 W/m 5,9 km/h (2 Bft)
17.06.2016 21:00 13,6 C 84 % 1012,9 hPa 0,0 l/m W-SW 0,00 h 8 W/m 6,9 km/h (2 Bft)
17.06.2016 22:00 12,8 C 86 % 1013,7 hPa 0,0 l/m W-SW 0,00 h 0 W/m 10,9 km/h (2 Bft)
17.06.2016 23:00 12,3 C 87 % 1013,9 hPa 0,0 l/m W-SW 0,00 h 0 W/m 10,5 km/h (2 Bft)
18.06.2016 00:00 12,4 C 85 % 1014,3 hPa 0,0 l/m SW 0,00 h 0 W/m 17,3 km/h (3 Bft)
18.06.2016 01:00 11,8 C 90 % 1015,0 hPa 2,0 l/m W-SW 0,00 h 0 W/m 24,4 km/h (4 Bft)
18.06.2016 02:00 10,9 C 95 % 1014,9 hPa 0,4 l/m SW 0,00 h 0 W/m 7,1 km/h (2 Bft)
18.06.2016 03:00 10,3 C 97 % 1014,9 hPa 0,0 l/m SW 0,00 h 0 W/m 5,5 km/h (1 Bft)
18.06.2016 04:00 9,9 C 97 % 1014,8 hPa 0,0 l/m SW 0,00 h 0 W/m 8,3 km/h (2 Bft)
18.06.2016 05:00 9,7 C 97 % 1015,0 hPa 0,0 l/m SW 0,00 h 8 W/m 4,0 km/h (1 Bft)
18.06.2016 06:00 9,6 C 98 % 1015,3 hPa 0,2 l/m N 0,08 h 52 W/m 0,8 km/h (0 Bft)
18.06.2016 07:00 11,3 C 98 % 1015,7 hPa 0,0 l/m SW 0,75 h 213 W/m 6,7 km/h (2 Bft)
18.06.2016 08:00 13,7 C 92 % 1016,0 hPa 0,0 l/m SW 0,67 h 315 W/m 11,4 km/h (2 Bft)
18.06.2016 09:00 14,9 C 86 % 1016,3 hPa 0,0 l/m SW 0,33 h 336 W/m 14,5 km/h (3 Bft)
18.06.2016 10:00 15,7 C 79 % 1016,5 hPa 0,0 l/m W 0,25 h 440 W/m 17,6 km/h (3 Bft)
18.06.2016 11:00 17,0 C 75 % 1016,6 hPa 0,0 l/m W-SW 0,75 h 671 W/m 20,4 km/h (4 Bft)
18.06.2016 12:00 18,2 C 68 % 1016,1 hPa 0,0 l/m W-SW 0,83 h 834 W/m 18,2 km/h (3 Bft)
18.06.2016 13:00 19,2 C 64 % 1015,7 hPa 0,0 l/m W-SW 1,00 h 965 W/m 18,6 km/h (3 Bft)
18.06.2016 14:00 19,8 C 63 % 1015,4 hPa 0,0 l/m N-NW 0,83 h 855 W/m 17,6 km/h (3 Bft)
18.06.2016 15:00 20,0 C 60 % 1015,2 hPa 0,0 l/m N 0,83 h 781 W/m 8,4 km/h (2 Bft)
18.06.2016 16:00 18,6 C 62 % 1015,4 hPa 0,0 l/m NW 0,67 h 615 W/m 18,3 km/h (3 Bft)
18.06.2016 17:00 19,7 C 61 % 1015,2 hPa 0,0 l/m N-NW 0,92 h 648 W/m 16,9 km/h (3 Bft)
18.06.2016 18:00 19,6 C 58 % 1014,9 hPa 0,0 l/m W-NW 0,50 h 300 W/m 12,9 km/h (3 Bft)
18.06.2016 19:00 16,6 C 73 % 1015,9 hPa 8,0 l/m N-NO 0,08 h 43 W/m 13,3 km/h (3 Bft)
18.06.2016 20:00 13,5 C 95 % 1016,7 hPa 0,0 l/m N 0,25 h 58 W/m 0,8 km/h (0 Bft)
18.06.2016 21:00 12,8 C 97 % 1017,1 hPa 0,0 l/m N 0,00 h 10 W/m 0,0 km/h (0 Bft)
18.06.2016 22:00 12,7 C 97 % 1017,9 hPa 0,0 l/m N 0,00 h 0 W/m 0,0 km/h (0 Bft)
18.06.2016 23:00 12,6 C 98 % 1018,3 hPa 0,4 l/m N 0,00 h 0 W/m 0,0 km/h (0 Bft)
19.06.2016 00:00 12,3 C 98 % 1018,3 hPa 0,0 l/m N 0,00 h 0 W/m 0,0 km/h (0 Bft)
19.06.2016 01:00 12,1 C 99 % 1018,5 hPa 0,0 l/m N 0,00 h 0 W/m 1,3 km/h (1 Bft)
19.06.2016 02:00 12,1 C 99 % 1018,6 hPa 0,2 l/m N 0,00 h 0 W/m 0,1 km/h (0 Bft)
19.06.2016 03:00 11,9 C 99 % 1018,6 hPa 0,0 l/m N 0,00 h 0 W/m 0,0 km/h (0 Bft)
19.06.2016 04:00 11,4 C 99 % 1018,4 hPa 0,0 l/m N 0,00 h 0 W/m 0,0 km/h (0 Bft)
19.06.2016 05:00 11,5 C 99 % 1018,8 hPa 0,0 l/m N 0,00 h 9 W/m 0,0 km/h (0 Bft)
19.06.2016 06:00 11,8 C 100 % 1019,1 hPa 0,0 l/m N 0,00 h 20 W/m 0,0 km/h (0 Bft)
19.06.2016 07:00 12,0 C 100 % 1019,4 hPa 0,2 l/m NO 0,00 h 60 W/m 0,4 km/h (0 Bft)
19.06.2016 08:00 12,5 C 98 % 1019,7 hPa 0,0 l/m NO 0,00 h 100 W/m 4,0 km/h (1 Bft)
19.06.2016 09:00 13,1 C 95 % 1020,0 hPa 0,0 l/m N-NW 0,00 h 172 W/m 7,2 km/h (2 Bft)
19.06.2016 10:00 13,9 C 90 % 1020,1 hPa 0,0 l/m N 0,00 h 253 W/m 10,2 km/h (2 Bft)
19.06.2016 11:00 14,8 C 84 % 1020,2 hPa 0,0 l/m N 0,17 h 363 W/m 12,8 km/h (3 Bft)
19.06.2016 12:00 15,9 C 74 % 1020,1 hPa 0,0 l/m N-NO 0,00 h 366 W/m 16,4 km/h (3 Bft)
19.06.2016 13:00 16,1 C 72 % 1020,0 hPa 0,0 l/m NO 0,00 h 170 W/m 10,2 km/h (2 Bft)
19.06.2016 14:00 15,1 C 82 % 1020,3 hPa 0,0 l/m W-SW 0,08 h 240 W/m 15,4 km/h (3 Bft)
19.06.2016 15:00 12,6 C 94 % 1020,9 hPa 2,8 l/m SW 0,00 h 45 W/m 14,5 km/h (3 Bft)
19.06.2016 16:00 12,5 C 97 % 1021,0 hPa 0,0 l/m SW 0,00 h 117 W/m 11,7 km/h (2 Bft)
19.06.2016 17:00 12,8 C 97 % 1021,1 hPa 0,0 l/m SW 0,00 h 80 W/m 3,9 km/h (1 Bft)
19.06.2016 18:00 12,8 C 96 % 1021,0 hPa 0,0 l/m SW 0,00 h 46 W/m 2,8 km/h (1 Bft)
19.06.2016 19:00 12,9 C 96 % 1021,1 hPa 0,0 l/m SW 0,00 h 46 W/m 1,1 km/h (0 Bft)
19.06.2016 20:00 12,8 C 95 % 1021,3 hPa 0,0 l/m SW 0,00 h 26 W/m 1,6 km/h (1 Bft)
19.06.2016 21:00 12,5 C 97 % 1021,9 hPa 0,0 l/m N 0,00 h 6 W/m 0,0 km/h (0 Bft)
19.06.2016 22:00 12,3 C 98 % 1022,5 hPa 0,0 l/m N 0,00 h 0 W/m 0,0 km/h (0 Bft)
19.06.2016 23:00 11,8 C 99 % 1022,4 hPa 0,0 l/m N 0,00 h 0 W/m 0,0 km/h (0 Bft)
Min-Datum _ 17.06.16 18.06.16 16.06.16 - - - - 13.06.16
_ Min-Zeit 06:55 18:45 06:55 - - - - 00:45
Minimum _ 8,6 C 51 % 999,1 hPa - - - - 0,0 km/h (0 Bft)
Max-Datum _ 18.06.16 14.06.16 19.06.16 18.06.16 - 13.06.16 13.06.16 17.06.16
_ Max-Zeit 15:55 05:50 22:25 19:45 - 13:50 14:05 14:10
Maximum _ 21,0 C 100 % 1022,6 hPa 8,0 l/m - 0,08 h 1185 W/m 53,1 km/h
W-SW (7 Bft)
Durchschnitt _ 13,4 C 91 % 1007,3 hPa #68,6 l/m W-SW #20:20 h 208 W/m 10,5 km/h (2 Bft)